Time;durP1;ratioP1;P1;durP2;ratioP2;P2;SDS_P1;SDS_P2;PMS_P1;PMS_P2;Temp;Humidity;BMP_temperature;BMP_pressure;BME280_temperature;BME280_humidity;BME280_pressure;Samples;Min_cycle;Max_cycle;Signal;HPM_P1;HPM_P2
2022/03/27 00:00:13;;;;;;;50.72;20.88;;;;;;;4.94;54.91;97675.31;2077058;28;20672;-63
2022/03/27 00:01:15;;;;;;;55.40;22.45;;;;;;;4.93;54.91;97680.53;2076280;28;20221;-63
2022/03/27 00:02:18;;;;;;;45.45;18.05;;;;;;;4.92;55.04;97671.91;2075126;28;20560;-64
2022/03/27 00:03:19;;;;;;;42.55;20.08;;;;;;;4.85;55.45;97670.38;2074360;28;20201;-63
2022/03/27 00:04:21;;;;;;;48.97;23.85;;;;;;;4.82;55.55;97673.06;2073598;28;20204;-64
2022/03/27 00:05:23;;;;;;;53.95;25.35;;;;;;;4.83;55.75;97676.50;2071430;28;20216;-64
2022/03/27 00:06:25;;;;;;;73.68;29.58;;;;;;;4.83;55.77;97676.50;2074589;28;20212;-63
2022/03/27 00:07:26;;;;;;;90.53;34.75;;;;;;;4.83;55.49;97674.75;2074493;28;20205;-64
2022/03/27 00:08:28;;;;;;;115.57;49.58;;;;;;;4.79;55.75;97672.31;2076301;28;20209;-63
2022/03/27 00:09:30;;;;;;;100.10;42.15;;;;;;;4.84;55.84;97676.47;2077499;28;20204;-64
2022/03/27 00:11:23;;;;;;;71.22;28.40;;;;;;;4.82;55.85;97675.66;2077404;28;20197;-64
2022/03/27 00:11:53;;;;;;;58.13;22.02;;;;;;;4.88;55.45;97677.19;2076426;28;20200;-63
2022/03/27 00:12:55;;;;;;;38.47;17.98;;;;;;;4.90;55.47;97673.69;2076523;28;20190;-63
2022/03/27 00:14:00;;;;;;;38.58;16.17;;;;;;;4.95;55.17;97671.78;2076713;28;20220;-64
2022/03/27 00:15:03;;;;;;;36.10;15.90;;;;;;;4.80;55.33;97669.63;2075369;28;20197;-63
2022/03/27 00:16:05;;;;;;;35.05;14.18;;;;;;;4.79;55.75;97670.53;2075387;28;20231;-64
2022/03/27 00:17:06;;;;;;;34.03;13.30;;;;;;;4.76;55.78;97668.03;2076164;28;20201;-64
2022/03/27 00:18:08;;;;;;;40.88;12.73;;;;;;;4.93;55.32;97676.19;2076947;28;20290;-63
2022/03/27 00:19:09;;;;;;;30.42;12.90;;;;;;;4.80;55.28;97664.44;2074997;28;20201;-64
2022/03/27 00:20:15;;;;;;;36.33;14.60;;;;;;;4.81;55.44;97671.34;2076183;28;20197;-63
2022/03/27 00:21:16;;;;;;;34.60;14.35;;;;;;;4.99;55.08;97674.31;2074643;28;20581;-63
2022/03/27 00:22:18;;;;;;;46.78;15.50;;;;;;;4.93;55.02;97671.00;2078426;28;20200;-64
2022/03/27 00:23:20;;;;;;;40.65;16.75;;;;;;;4.88;55.12;97672.88;2074682;28;20208;-63
2022/03/27 00:24:21;;;;;;;42.80;16.67;;;;;;;4.78;55.44;97663.63;2073400;28;20202;-63
2022/03/27 00:25:23;;;;;;;48.08;18.23;;;;;;;4.80;55.56;97668.78;2072777;28;20220;-63
2022/03/27 00:26:25;;;;;;;46.45;18.52;;;;;;;4.73;55.42;97660.34;2073411;28;20547;-63
2022/03/27 00:27:26;;;;;;;45.78;17.83;;;;;;;4.78;55.88;97665.41;2080218;28;20279;-63
2022/03/27 00:28:32;;;;;;;54.03;19.17;;;;;;;4.76;55.69;97668.03;2077216;28;20653;-63
2022/03/27 00:29:33;;;;;;;38.80;18.13;;;;;;;4.73;56.13;97668.13;2076228;28;20208;-63
2022/03/27 00:30:35;;;;;;;47.55;17.70;;;;;;;4.73;56.09;97668.97;2076911;28;20216;-63
2022/03/27 00:31:38;;;;;;;42.17;19.55;;;;;;;4.83;55.77;97664.38;2078400;28;20208;-64
2022/03/27 00:32:40;;;;;;;41.65;19.73;;;;;;;4.88;55.66;97666.81;2077192;28;20200;-63
2022/03/27 00:33:43;;;;;;;45.00;20.63;;;;;;;4.72;56.20;97659.50;2078325;28;20201;-62
2022/03/27 00:34:44;;;;;;;40.10;16.92;;;;;;;4.69;56.43;97662.16;2077716;28;20200;-63
2022/03/27 00:35:45;;;;;;;61.50;18.33;;;;;;;4.61;56.57;97665.88;2078373;28;20218;-63
2022/03/27 00:36:49;;;;;;;42.53;16.80;;;;;;;4.54;56.62;97658.25;2079164;28;20198;-63
2022/03/27 00:37:52;;;;;;;36.67;18.13;;;;;;;4.51;56.91;97663.53;2079111;28;20189;-63
2022/03/27 00:38:53;;;;;;;44.55;17.80;;;;;;;4.50;56.65;97664.41;2074706;28;20844;-65
2022/03/27 00:39:54;;;;;;;39.72;16.95;;;;;;;4.47;56.98;97664.53;2078980;28;20203;-65
2022/03/27 00:40:56;;;;;;;37.28;14.23;;;;;;;4.36;56.96;97661.38;2077300;28;20227;-64
2022/03/27 00:41:58;;;;;;;39.35;15.40;;;;;;;4.33;56.76;97664.03;2077493;28;20201;-65
2022/03/27 00:42:59;;;;;;;32.42;12.93;;;;;;;4.38;56.35;97662.16;2077017;28;20193;-65
2022/03/27 00:44:01;;;;;;;39.60;14.27;;;;;;;4.07;56.99;97662.97;2077453;28;20198;-65
2022/03/27 00:45:03;;;;;;;39.63;13.98;;;;;;;3.96;57.84;97652.06;2076677;28;20231;-64
2022/03/27 00:46:05;;;;;;;32.85;15.27;;;;;;;4.11;57.44;97662.00;2077849;28;20607;-65
2022/03/27 00:47:07;;;;;;;42.13;14.75;;;;;;;4.20;57.38;97662.69;2076929;28;20201;-65
2022/03/27 00:48:08;;;;;;;36.50;14.65;;;;;;;4.23;57.38;97662.56;2079867;28;20204;-65
2022/03/27 00:49:10;;;;;;;38.22;14.23;;;;;;;4.27;57.17;97659.00;2079425;28;20208;-65
2022/03/27 00:50:11;;;;;;;28.27;13.02;;;;;;;4.39;56.74;97655.22;2078926;28;20204;-65
2022/03/27 00:51:13;;;;;;;38.10;14.57;;;;;;;4.38;56.63;97662.16;2075511;28;20250;-65
2022/03/27 00:52:14;;;;;;;47.83;14.13;;;;;;;4.28;57.09;97658.13;2077321;28;20208;-65
2022/03/27 00:53:16;;;;;;;36.63;14.50;;;;;;;4.33;57.12;97661.44;2077962;28;20229;-65
2022/03/27 00:54:18;;;;;;;40.17;14.10;;;;;;;4.32;56.99;97659.75;2077072;28;20209;-65
2022/03/27 00:55:20;;;;;;;32.13;14.25;;;;;;;4.23;57.11;97641.81;2076495;28;20204;-65
2022/03/27 00:56:21;;;;;;;34.53;14.70;;;;;;;4.31;57.15;97660.63;2080534;28;20204;-65
2022/03/27 00:57:23;;;;;;;31.15;14.05;;;;;;;4.32;57.34;97654.56;2077811;28;20209;-64
2022/03/27 00:58:25;;;;;;;32.85;13.60;;;;;;;4.24;57.42;97653.91;2079831;28;20205;-64
2022/03/27 00:59:26;;;;;;;50.53;15.20;;;;;;;4.23;57.41;97657.38;2078206;28;20201;-65
2022/03/27 01:00:46;;;;;;;52.63;14.15;;;;;;;4.18;57.84;97652.34;2075973;28;20628;-65
2022/03/27 01:01:47;;;;;;;36.95;13.40;;;;;;;4.19;57.67;97648.84;2077408;28;20317;-64
2022/03/27 01:02:50;;;;;;;35.95;12.57;;;;;;;4.19;57.70;97655.78;2077127;28;20203;-64
2022/03/27 01:03:54;;;;;;;40.70;14.57;;;;;;;4.19;57.49;97650.59;2077860;28;20198;-64
2022/03/27 01:04:56;;;;;;;31.23;13.23;;;;;;;4.10;57.75;97660.31;2080032;28;20201;-65
2022/03/27 01:05:57;;;;;;;31.25;12.70;;;;;;;4.08;57.90;97649.13;2079876;28;20227;-64
2022/03/27 01:06:59;;;;;;;30.95;12.48;;;;;;;4.13;57.83;97655.03;2077197;28;20193;-64
2022/03/27 01:08:05;;;;;;;29.58;12.32;;;;;;;4.18;57.60;97654.09;2080075;28;20208;-64
2022/03/27 01:10:29;;;;;;;33.38;12.30;;;;;;;4.06;57.96;97653.50;2074048;28;20209;-65
2022/03/27 01:11:30;;;;;;;37.78;11.82;;;;;;;4.12;57.95;97649.91;2076339;28;20782;-65
2022/03/27 01:12:38;;;;;;;30.30;12.55;;;;;;;4.11;57.92;97646.44;2077754;28;20201;-65
2022/03/27 01:13:57;;;;;;;36.05;14.10;;;;;;;4.16;57.40;97644.59;2077387;28;20196;-65
2022/03/27 01:14:59;;;;;;;33.92;12.63;;;;;;;4.09;57.76;97647.38;2077192;28;20202;-64
2022/03/27 01:16:00;;;;;;;42.55;12.48;;;;;;;4.08;57.62;97643.09;2077165;28;20240;-65
2022/03/27 01:17:08;;;;;;;28.75;13.00;;;;;;;4.09;57.94;97652.56;2078081;28;20197;-65
2022/03/27 01:18:10;;;;;;;33.97;12.15;;;;;;;3.94;57.89;97646.91;2076144;28;20229;-65
2022/03/27 01:19:14;;;;;;;41.70;13.85;;;;;;;3.81;58.61;97645.50;2077707;28;20201;-65
2022/03/27 01:20:29;;;;;;;24.35;11.85;;;;;;;3.72;58.64;97633.66;2077666;28;20656;-65
2022/03/27 01:21:31;;;;;;;39.67;13.02;;;;;;;3.87;58.67;97639.31;2076577;28;20697;-64
2022/03/27 01:22:32;;;;;;;40.17;13.93;;;;;;;3.93;58.43;97639.16;2076938;28;20194;-64
2022/03/27 01:23:34;;;;;;;47.45;15.27;;;;;;;3.85;58.46;97641.09;2077499;28;20315;-64
2022/03/27 01:24:36;;;;;;;36.83;15.25;;;;;;;3.88;58.42;97638.41;2076862;28;20202;-65
2022/03/27 01:25:39;;;;;;;41.45;16.83;;;;;;;3.79;58.82;97634.31;2076462;28;20201;-65
2022/03/27 01:26:41;;;;;;;40.83;16.30;;;;;;;3.91;58.41;97639.19;2078435;28;20193;-65
2022/03/27 01:27:42;;;;;;;41.70;16.45;;;;;;;3.90;58.32;97637.50;2077095;28;20224;-65
2022/03/27 01:28:44;;;;;;;41.67;17.45;;;;;;;3.90;58.20;97637.50;2076901;28;20204;-65
2022/03/27 01:29:46;;;;;;;39.30;15.98;;;;;;;3.90;58.36;97634.03;2078281;28;20194;-64
2022/03/27 01:30:48;;;;;;;50.03;16.45;;;;;;;3.86;58.73;97632.41;2077483;28;20233;-65
2022/03/27 01:31:51;;;;;;;44.67;17.63;;;;;;;3.78;58.99;97635.19;2078426;28;20205;-64
2022/03/27 01:32:54;;;;;;;39.65;16.98;;;;;;;3.78;59.24;97637.78;2076445;28;20257;-64
2022/03/27 01:33:56;;;;;;;37.90;15.52;;;;;;;3.74;59.04;97629.28;2077889;28;20209;-65
2022/03/27 01:34:57;;;;;;;54.78;16.92;;;;;;;3.75;59.26;97635.28;2079048;28;20213;-64
2022/03/27 01:35:59;;;;;;;46.05;18.50;;;;;;;3.74;59.06;97641.34;2076375;28;20240;-65
2022/03/27 01:37:05;;;;;;;44.05;18.15;;;;;;;3.73;59.14;97624.97;2077286;28;20198;-64
2022/03/27 01:38:07;;;;;;;51.58;17.88;;;;;;;3.87;58.72;97634.13;2076752;28;20201;-65
2022/03/27 01:39:11;;;;;;;39.50;17.75;;;;;;;3.90;58.81;97634.91;2076524;28;20197;-64
2022/03/27 01:40:13;;;;;;;43.30;17.88;;;;;;;3.75;58.78;97636.13;2078184;28;20197;-64
2022/03/27 01:41:14;;;;;;;45.17;16.80;;;;;;;3.80;59.01;97632.56;2077812;28;20228;-65
2022/03/27 01:42:16;;;;;;;50.78;16.52;;;;;;;3.85;58.79;97633.31;2077456;28;20672;-65
2022/03/27 01:43:17;;;;;;;36.25;16.50;;;;;;;3.80;59.28;97633.41;2079012;28;20197;-65
2022/03/27 01:44:20;;;;;;;43.17;16.23;;;;;;;3.85;58.95;97628.97;2076448;28;20712;-65
2022/03/27 01:45:23;;;;;;;40.58;15.13;;;;;;;3.83;58.81;97632.50;2077058;28;20667;-65
2022/03/27 01:46:25;;;;;;;38.58;14.73;;;;;;;3.79;58.82;97630.91;2074458;28;20641;-65
2022/03/27 01:47:27;;;;;;;28.73;14.95;;;;;;;3.72;58.99;97625.88;2077777;28;20197;-65
2022/03/27 01:48:28;;;;;;;41.38;15.18;;;;;;;3.71;58.88;97628.50;2078066;28;20205;-64
2022/03/27 01:49:30;;;;;;;27.20;12.57;;;;;;;3.70;59.32;97625.03;2076711;28;20232;-65
2022/03/27 01:50:31;;;;;;;37.33;14.30;;;;;;;3.70;58.96;97629.38;2076651;28;20653;-65
2022/03/27 01:51:34;;;;;;;36.17;15.48;;;;;;;3.63;59.03;97620.06;2078644;28;20197;-65
2022/03/27 01:52:36;;;;;;;40.92;14.57;;;;;;;3.65;59.52;97624.31;2079864;28;20293;-64
2022/03/27 01:53:39;;;;;;;45.58;14.15;;;;;;;3.70;59.37;97625.03;2076806;28;20194;-65
2022/03/27 01:54:41;;;;;;;43.28;15.23;;;;;;;3.67;59.31;97622.53;2078482;28;20224;-65
2022/03/27 01:55:42;;;;;;;36.42;15.20;;;;;;;3.53;59.76;97627.22;2076841;28;20689;-65
2022/03/27 01:56:45;;;;;;;40.33;16.17;;;;;;;3.49;59.78;97628.16;2078704;28;20190;-64
2022/03/27 01:57:46;;;;;;;38.75;15.52;;;;;;;3.54;59.89;97628.91;2075304;28;20515;-65
2022/03/27 01:58:48;;;;;;;35.75;13.77;;;;;;;3.50;59.79;97628.13;2076907;28;20194;-65
2022/03/27 01:59:50;;;;;;;43.40;16.88;;;;;;;3.42;60.17;97621.44;2076433;28;20565;-65
2022/03/27 02:00:51;;;;;;;45.17;15.98;;;;;;;3.52;60.06;97628.94;2077294;28;20233;-65
2022/03/27 02:01:53;;;;;;;40.85;16.17;;;;;;;3.48;59.92;97627.31;2076580;28;20198;-65
2022/03/27 02:02:55;;;;;;;47.13;17.25;;;;;;;3.46;59.89;97636.00;2075356;28;20193;-65
2022/03/27 02:03:57;;;;;;;40.63;14.80;;;;;;;3.44;60.34;97633.44;2076508;28;20541;-64
2022/03/27 02:04:59;;;;;;;35.92;14.85;;;;;;;3.46;60.05;97633.41;2077189;28;20204;-64
2022/03/27 02:06:02;;;;;;;33.10;14.68;;;;;;;3.35;60.57;97629.34;2075757;28;20581;-64
2022/03/27 02:07:03;;;;;;;38.90;15.68;;;;;;;3.34;60.56;97627.63;2078370;28;20208;-65
2022/03/27 02:08:05;;;;;;;44.65;15.77;;;;;;;3.30;60.74;97632.94;2077867;28;20202;-65
2022/03/27 02:09:26;;;;;;;38.78;14.07;;;;;;;3.11;61.02;97638.50;2076284;28;20233;-65
2022/03/27 02:10:28;;;;;;;31.45;13.20;;;;;;;3.07;61.25;97633.44;2078255;28;20649;-65
2022/03/27 02:11:29;;;;;;;39.08;14.77;;;;;;;3.05;61.23;97624.88;2079020;28;20196;-64
2022/03/27 02:12:34;;;;;;;41.42;14.98;;;;;;;3.22;60.99;97634.84;2076838;28;20251;-64
2022/03/27 02:13:36;;;;;;;28.58;12.82;;;;;;;3.10;61.07;97630.81;2077899;28;20209;-65
2022/03/27 02:14:39;;;;;;;30.92;13.63;;;;;;;3.05;61.08;97635.22;2077678;28;20287;-64
2022/03/27 02:15:41;;;;;;;31.10;13.20;;;;;;;3.07;61.16;97630.84;2077246;28;20229;-64
2022/03/27 02:16:43;;;;;;;32.97;12.27;;;;;;;3.08;61.32;97635.16;2075993;28;20571;-65
2022/03/27 02:17:44;;;;;;;33.78;12.93;;;;;;;3.01;61.24;97634.44;2077197;28;20196;-64
2022/03/27 02:18:46;;;;;;;30.40;13.32;;;;;;;3.13;61.03;97638.47;2077018;28;20193;-64
2022/03/27 02:19:48;;;;;;;33.45;13.98;;;;;;;3.14;60.56;97635.03;2075005;28;20642;-64
2022/03/27 02:20:49;;;;;;;30.75;14.23;;;;;;;3.11;60.80;97629.91;2073748;28;20225;-64
2022/03/27 02:21:51;;;;;;;29.27;12.68;;;;;;;3.08;60.72;97630.00;2076249;28;20594;-65
2022/03/27 02:22:53;;;;;;;31.50;13.60;;;;;;;3.07;61.17;97618.75;2076804;28;20289;-64
2022/03/27 02:23:54;;;;;;;27.67;12.70;;;;;;;3.10;61.12;97630.81;2076723;28;20216;-65
2022/03/27 02:24:56;;;;;;;27.30;12.32;;;;;;;3.02;61.25;97627.50;2077135;28;20221;-65
2022/03/27 02:25:57;;;;;;;24.13;11.27;;;;;;;3.07;61.01;97626.53;2078003;28;20847;-65
2022/03/27 02:26:59;;;;;;;29.23;11.88;;;;;;;3.06;61.45;97629.13;2075474;28;20197;-64
2022/03/27 02:28:00;;;;;;;30.42;12.85;;;;;;;3.01;61.01;97626.66;2076571;28;20643;-65
2022/03/27 02:29:02;;;;;;;31.35;10.82;;;;;;;2.89;60.72;97638.13;2075825;28;20548;-64
2022/03/27 02:30:07;;;;;;;23.80;11.73;;;;;;;2.85;60.64;97631.34;2078297;28;20893;-64
2022/03/27 02:31:09;;;;;;;37.33;11.70;;;;;;;2.77;60.99;97628.06;2074938;28;20225;-64
2022/03/27 02:32:11;;;;;;;26.75;11.20;;;;;;;2.75;61.47;97632.41;2073777;28;20224;-65
2022/03/27 02:33:12;;;;;;;37.80;13.80;;;;;;;2.52;61.47;97592.34;2075742;28;20201;-64
2022/03/27 02:34:14;;;;;;;35.90;12.18;;;;;;;2.66;61.55;97635.19;2078707;28;20559;-64
2022/03/27 02:35:16;;;;;;;26.73;12.55;;;;;;;2.56;61.87;97627.59;2079476;28;20213;-64
2022/03/27 02:36:17;;;;;;;28.90;10.75;;;;;;;2.46;62.28;97631.28;2078686;28;20232;-65
2022/03/27 02:37:19;;;;;;;32.13;12.60;;;;;;;2.57;61.84;97628.47;2076108;28;20201;-65
2022/03/27 02:38:20;;;;;;;30.45;13.15;;;;;;;2.54;61.95;97621.63;2077574;28;20201;-64
2022/03/27 02:39:22;;;;;;;31.92;11.32;;;;;;;2.59;61.71;97629.31;2078650;28;20296;-64
2022/03/27 02:40:23;;;;;;;34.38;10.75;;;;;;;2.58;61.78;97632.75;2079052;28;20205;-64
2022/03/27 02:41:25;;;;;;;30.67;12.48;;;;;;;2.62;61.96;97636.97;2078763;28;20821;-64
2022/03/27 02:42:26;;;;;;;30.13;11.35;;;;;;;2.75;61.39;97630.69;2078233;28;20208;-64
2022/03/27 02:43:28;;;;;;;28.08;12.15;;;;;;;2.71;61.44;97634.22;2078565;28;20207;-64
2022/03/27 02:44:29;;;;;;;32.67;11.45;;;;;;;2.71;61.33;97618.69;2074828;28;20201;-64
2022/03/27 02:45:32;;;;;;;47.20;14.18;;;;;;;2.80;61.57;97633.16;2076697;28;20201;-64
2022/03/27 02:46:33;;;;;;;24.85;12.32;;;;;;;2.79;61.36;97625.44;2075870;28;20216;-65
2022/03/27 02:47:35;;;;;;;30.60;12.65;;;;;;;2.87;61.32;97629.56;2078004;28;20204;-64
2022/03/27 02:48:37;;;;;;;30.83;12.65;;;;;;;2.84;61.30;97631.34;2077288;28;20200;-64
2022/03/27 02:49:38;;;;;;;27.73;13.68;;;;;;;2.66;62.20;97632.59;2076063;28;20556;-65
2022/03/27 02:50:43;;;;;;;33.45;12.07;;;;;;;2.69;62.41;97633.41;2076492;28;20229;-65
2022/03/27 02:51:45;;;;;;;50.92;13.52;;;;;;;2.86;61.81;97632.16;2074315;28;20197;-64
2022/03/27 02:52:46;;;;;;;30.10;13.45;;;;;;;2.70;62.11;97627.31;2075714;28;20240;-64
2022/03/27 02:53:48;;;;;;;34.40;12.13;;;;;;;2.73;62.23;97629.84;2074850;28;20201;-64
2022/03/27 02:54:50;;;;;;;38.17;12.35;;;;;;;2.76;62.17;97629.81;2075462;28;20259;-64
2022/03/27 02:55:51;;;;;;;33.20;13.25;;;;;;;2.75;62.20;97629.84;2077899;28;20227;-64
2022/03/27 02:56:57;;;;;;;35.42;13.57;;;;;;;2.78;62.07;97627.16;2074365;28;20197;-65
2022/03/27 02:57:59;;;;;;;34.40;12.05;;;;;;;2.67;62.40;97631.72;2075462;28;20197;-64
2022/03/27 02:59:01;;;;;;;40.88;13.70;;;;;;;2.69;62.48;97628.22;2078916;28;20197;-65
2022/03/27 03:00:06;;;;;;;28.48;12.00;;;;;;;2.68;62.31;97628.25;2075446;28;20213;-64
2022/03/27 03:01:08;;;;;;;29.85;13.68;;;;;;;2.67;62.73;97629.16;2076996;28;20229;-64
2022/03/27 03:02:09;;;;;;;43.08;13.93;;;;;;;2.76;62.36;97634.09;2076132;28;20193;-64
2022/03/27 03:03:12;;;;;;;31.33;14.23;;;;;;;2.71;62.74;97635.97;2076040;28;20676;-64
2022/03/27 03:04:15;;;;;;;32.20;15.60;;;;;;;2.69;62.39;97624.78;2076119;28;20228;-64
2022/03/27 03:05:19;;;;;;;40.33;17.25;;;;;;;2.62;62.94;97633.56;2078307;28;20212;-64
2022/03/27 03:06:22;;;;;;;52.40;16.95;;;;;;;2.63;62.98;97630.94;2074249;28;20217;-64
2022/03/27 03:07:24;;;;;;;43.30;15.88;;;;;;;2.56;62.97;97637.94;2074871;28;20785;-64
2022/03/27 03:08:27;;;;;;;31.33;14.60;;;;;;;2.56;62.98;97625.03;2077480;28;20669;-64
2022/03/27 03:09:29;;;;;;;48.80;15.10;;;;;;;2.58;63.30;97631.00;2075591;28;20197;-64
2022/03/27 03:10:38;;;;;;;37.53;15.70;;;;;;;2.54;62.91;97621.63;2086329;28;20497;-64
2022/03/27 03:11:40;;;;;;;40.35;16.23;;;;;;;2.65;62.71;97629.16;2071292;28;20194;-64
2022/03/27 03:12:42;;;;;;;39.97;19.25;;;;;;;2.53;62.65;97632.88;2071065;28;20635;-65
2022/03/27 03:13:46;;;;;;;44.58;21.58;;;;;;;2.46;63.06;97627.84;2071107;28;20193;-64
2022/03/27 03:14:47;;;;;;;42.83;21.70;;;;;;;2.47;62.86;97626.94;2071214;28;20204;-64
2022/03/27 03:15:50;;;;;;;83.28;34.80;;;;;;;2.44;62.82;97617.53;2070702;28;20742;-65
2022/03/27 03:16:53;;;;;;;99.88;42.30;;;;;;;2.43;63.19;97622.72;2071271;28;20575;-65
2022/03/27 03:17:54;;;;;;;93.70;40.83;;;;;;;2.49;63.23;97622.59;2070651;28;20213;-65
2022/03/27 03:18:56;;;;;;;95.07;37.28;;;;;;;2.52;63.28;97628.56;2070504;28;20252;-64
2022/03/27 03:19:57;;;;;;;69.50;31.23;;;;;;;2.67;63.15;97626.56;2070506;28;20193;-65
2022/03/27 03:20:59;;;;;;;61.33;29.10;;;;;;;2.63;63.16;97632.69;2070700;28;21240;-65
2022/03/27 03:22:00;;;;;;;65.53;25.65;;;;;;;2.56;63.30;97625.03;2070842;28;20204;-65
2022/03/27 03:23:03;;;;;;;58.35;26.45;;;;;;;2.52;63.60;97627.72;2071216;28;20289;-64
2022/03/27 03:24:07;;;;;;;64.45;29.08;;;;;;;2.44;63.77;97622.69;2070951;28;20206;-65
2022/03/27 03:25:08;;;;;;;76.63;33.00;;;;;;;2.41;63.92;97627.94;2071108;28;20197;-64
2022/03/27 03:26:10;;;;;;;100.25;38.22;;;;;;;2.43;63.88;97623.59;2069922;28;20236;-65
2022/03/27 03:27:12;;;;;;;100.75;43.67;;;;;;;2.42;64.15;97624.47;2069443;28;20232;-64
2022/03/27 03:28:14;;;;;;;90.80;41.88;;;;;;;2.43;63.89;97626.19;2071220;28;20798;-64
2022/03/27 03:29:15;;;;;;;88.18;33.35;;;;;;;2.47;63.67;97624.34;2071040;28;20232;-64
2022/03/27 03:30:17;;;;;;;52.83;22.65;;;;;;;2.51;63.80;97632.03;2071080;28;20206;-65
2022/03/27 03:31:18;;;;;;;47.90;19.63;;;;;;;2.49;63.82;97627.75;2070715;28;20225;-65
2022/03/27 03:32:22;;;;;;;52.88;18.10;;;;;;;2.53;63.67;97632.88;2070962;28;20244;-64
2022/03/27 03:33:25;;;;;;;53.75;20.27;;;;;;;2.47;63.96;97626.94;2071096;28;20681;-65
2022/03/27 03:34:26;;;;;;;51.05;18.92;;;;;;;2.46;64.12;97628.69;2070381;28;20544;-65
2022/03/27 03:35:28;;;;;;;43.30;19.17;;;;;;;2.54;63.89;97631.13;2070056;28;20774;-64
2022/03/27 03:36:43;;;;;;;49.60;18.55;;;;;;;2.40;64.21;97628.81;2071014;28;20264;-64
2022/03/27 03:37:45;;;;;;;36.58;16.10;;;;;;;2.44;63.68;97620.09;2070459;28;20206;-64
2022/03/27 03:38:46;;;;;;;43.25;18.33;;;;;;;2.35;64.57;97625.44;2071094;28;20658;-65
2022/03/27 03:39:47;;;;;;;49.42;20.02;;;;;;;2.37;64.15;97618.53;2070950;28;20205;-64
2022/03/27 03:40:49;;;;;;;56.50;22.48;;;;;;;2.35;64.48;97623.75;2070733;28;20601;-65
2022/03/27 03:41:51;;;;;;;59.30;21.52;;;;;;;2.38;64.25;97628.00;2069365;28;20258;-64
2022/03/27 03:42:58;;;;;;;51.97;20.70;;;;;;;2.33;64.36;97632.38;2070983;28;20206;-64
2022/03/27 03:43:59;;;;;;;37.72;18.65;;;;;;;2.31;64.35;97624.69;2071026;28;20574;-64
2022/03/27 03:45:01;;;;;;;39.97;18.20;;;;;;;2.19;64.33;97627.50;2070911;28;20202;-65
2022/03/27 03:46:03;;;;;;;41.72;19.90;;;;;;;2.23;64.67;97626.53;2069758;28;20226;-64
2022/03/27 03:47:05;;;;;;;51.40;19.92;;;;;;;2.43;64.31;97627.88;2071082;28;20704;-65
2022/03/27 03:48:07;;;;;;;43.65;17.17;;;;;;;2.50;64.07;97627.75;2070405;28;20552;-64
2022/03/27 03:49:08;;;;;;;41.33;19.15;;;;;;;2.42;63.79;97629.63;2071045;28;20209;-65
2022/03/27 03:50:10;;;;;;;39.00;16.98;;;;;;;2.47;63.56;97622.66;2070786;28;20205;-65
2022/03/27 03:51:12;;;;;;;41.35;18.67;;;;;;;2.33;64.46;97620.34;2070509;28;20234;-64
2022/03/27 03:52:13;;;;;;;43.22;17.92;;;;;;;2.36;64.34;97617.69;2070973;28;20202;-65
2022/03/27 03:53:15;;;;;;;33.28;15.80;;;;;;;2.18;64.40;97621.47;2077470;28;20205;-65
2022/03/27 03:54:16;;;;;;;31.70;15.65;;;;;;;2.10;64.46;97623.34;2077577;28;20200;-64
2022/03/27 03:55:18;;;;;;;46.92;16.95;;;;;;;2.13;64.77;97623.28;2070901;28;20281;-64
2022/03/27 03:56:19;;;;;;;42.33;17.38;;;;;;;1.87;65.30;97623.78;2062608;28;20253;-64
2022/03/27 03:57:21;;;;;;;37.58;16.92;;;;;;;2.10;65.19;97620.78;2062743;28;20202;-65
2022/03/27 03:58:22;;;;;;;34.17;16.17;;;;;;;2.10;65.00;97625.94;2059794;28;20276;-64
2022/03/27 03:59:24;;;;;;;39.38;17.30;;;;;;;2.15;64.74;97631.00;2062695;28;20195;-64
2022/03/27 04:00:31;;;;;;;34.63;14.10;;;;;;;2.13;64.15;97623.28;2063937;28;20834;-64
2022/03/27 04:01:33;;;;;;;31.27;13.15;;;;;;;1.99;64.28;97617.53;2070894;28;20193;-64
2022/03/27 04:02:35;;;;;;;30.60;14.00;;;;;;;1.91;63.96;97620.25;2069850;28;20579;-65
2022/03/27 04:03:36;;;;;;;32.67;13.50;;;;;;;1.73;64.32;97626.59;2070699;28;20281;-65
2022/03/27 04:04:38;;;;;;;33.15;13.98;;;;;;;1.66;64.32;97631.88;2070776;28;20534;-64
2022/03/27 04:05:39;;;;;;;32.40;13.10;;;;;;;1.66;64.45;97629.31;2070098;28;20240;-64
2022/03/27 04:06:41;;;;;;;29.00;13.70;;;;;;;1.76;63.53;97625.69;2070839;28;20205;-65
2022/03/27 04:07:43;;;;;;;30.73;12.70;;;;;;;1.72;63.79;97626.63;2070859;28;20198;-65
2022/03/27 04:08:44;;;;;;;31.38;13.95;;;;;;;1.62;64.62;97625.06;2070770;28;20202;-64
2022/03/27 04:09:46;;;;;;;36.65;14.45;;;;;;;1.73;64.56;97618.84;2070735;28;20617;-65
2022/03/27 04:10:48;;;;;;;34.72;15.13;;;;;;;1.93;63.88;97617.66;2070337;28;20583;-64
2022/03/27 04:11:49;;;;;;;32.08;15.40;;;;;;;1.92;63.64;97623.69;2070762;28;20198;-64
2022/03/27 04:12:51;;;;;;;32.00;14.13;;;;;;;1.88;64.34;97628.06;2070832;28;20201;-65
2022/03/27 04:13:52;;;;;;;36.50;14.65;;;;;;;1.86;64.27;97627.25;2070274;28;20214;-64
2022/03/27 04:14:54;;;;;;;38.35;15.02;;;;;;;1.92;64.69;97631.44;2070226;28;20205;-64
2022/03/27 04:15:55;;;;;;;37.83;14.40;;;;;;;1.96;64.49;97635.66;2070317;28;20234;-64
2022/03/27 04:16:57;;;;;;;40.25;13.73;;;;;;;1.97;64.76;97630.47;2070649;28;20205;-64
2022/03/27 04:18:00;;;;;;;39.47;14.70;;;;;;;1.97;64.89;97629.63;2070749;28;20948;-65
2022/03/27 04:19:02;;;;;;;28.25;13.85;;;;;;;1.91;65.14;97624.56;2070709;28;20205;-64
2022/03/27 04:20:04;;;;;;;42.20;15.18;;;;;;;1.93;65.00;97620.22;2070790;28;20319;-64
2022/03/27 04:21:07;;;;;;;39.58;13.35;;;;;;;1.83;65.23;97629.03;2069356;28;20723;-64
2022/03/27 04:22:08;;;;;;;36.22;13.35;;;;;;;1.92;65.15;97627.13;2063902;28;20202;-64
2022/03/27 04:23:10;;;;;;;47.35;14.60;;;;;;;1.84;65.15;97620.38;2064171;28;20756;-64
2022/03/27 04:24:12;;;;;;;33.30;13.75;;;;;;;1.85;65.13;97627.28;2065136;28;20206;-64
2022/03/27 04:25:15;;;;;;;41.78;15.93;;;;;;;1.76;65.22;97620.50;2072686;28;20202;-64
2022/03/27 04:26:17;;;;;;;37.25;15.35;;;;;;;1.84;65.43;97623.81;2063708;28;20230;-64
2022/03/27 04:27:18;;;;;;;37.70;16.30;;;;;;;1.75;65.70;97624.00;2057246;28;20507;-64
2022/03/27 04:28:19;;;;;;;32.38;16.63;;;;;;;1.76;65.79;97623.97;2057220;28;20199;-65
2022/03/27 04:29:21;;;;;;;42.20;15.48;;;;;;;1.84;65.70;97628.97;2057171;28;20507;-64
2022/03/27 04:30:23;;;;;;;30.88;14.43;;;;;;;1.78;66.43;97623.94;2056116;28;20555;-64
2022/03/27 04:31:25;;;;;;;36.13;16.88;;;;;;;1.72;66.47;97630.03;2065246;28;20547;-64
2022/03/27 04:32:26;;;;;;;35.05;15.65;;;;;;;1.80;66.39;97627.34;2065283;28;20199;-64
2022/03/27 04:33:28;;;;;;;29.35;14.98;;;;;;;1.85;66.06;97625.53;2065101;28;20206;-64
2022/03/27 04:34:29;;;;;;;33.70;15.85;;;;;;;1.87;66.20;97625.50;2064335;28;20665;-64
2022/03/27 04:35:31;;;;;;;43.53;15.68;;;;;;;1.87;65.60;97612.59;2064744;28;20221;-65
2022/03/27 04:36:33;;;;;;;34.40;14.75;;;;;;;1.91;66.03;97622.00;2065059;28;20201;-64
2022/03/27 04:37:42;;;;;;;43.55;15.85;;;;;;;1.79;66.30;97625.63;2065234;28;20201;-64
2022/03/27 04:38:44;;;;;;;34.80;14.55;;;;;;;1.71;66.43;97627.50;2065255;28;20202;-64
2022/03/27 04:39:45;;;;;;;36.38;14.05;;;;;;;1.73;66.37;97624.00;2065225;28;20198;-64
2022/03/27 04:40:47;;;;;;;38.47;14.77;;;;;;;1.70;66.06;97620.63;2063754;28;20728;-64
2022/03/27 04:41:48;;;;;;;32.38;13.35;;;;;;;1.52;66.93;97626.97;2065105;28;20221;-64
2022/03/27 04:42:50;;;;;;;42.15;14.68;;;;;;;1.55;66.57;97630.34;2065136;28;20198;-64
2022/03/27 04:43:51;;;;;;;39.00;14.48;;;;;;;1.60;66.59;97632.84;2072687;28;20222;-64
2022/03/27 04:44:52;;;;;;;43.53;14.80;;;;;;;1.55;66.51;97632.94;2072369;28;20199;-64
2022/03/27 04:45:54;;;;;;;28.58;14.05;;;;;;;1.57;66.62;97632.91;2064697;28;20767;-64
2022/03/27 04:46:56;;;;;;;33.03;12.93;;;;;;;1.55;66.72;97632.94;2072640;28;20202;-64
2022/03/27 04:47:57;;;;;;;32.88;13.50;;;;;;;1.57;66.19;97631.16;2072472;28;20205;-64
2022/03/27 04:48:59;;;;;;;28.20;12.45;;;;;;;1.60;66.49;97625.09;2064954;28;20232;-64
2022/03/27 04:50:02;;;;;;;36.03;13.27;;;;;;;1.69;65.89;97622.38;2065000;28;20205;-65
2022/03/27 04:51:03;;;;;;;31.45;13.00;;;;;;;1.70;65.91;97626.63;2064586;28;20678;-64